createdAt,value
2018-02-25T00:00:04.619Z,71.30
2018-02-25T00:02:32.947Z,72.40
2018-02-25T00:05:00.407Z,71.70
2018-02-25T00:07:27.857Z,71.80
2018-02-25T00:09:56.083Z,71.70
2018-02-25T00:12:23.543Z,71.70
2018-02-25T00:14:51.011Z,71.80
2018-02-25T00:17:19.239Z,71.90
2018-02-25T00:19:46.689Z,71.90
2018-02-25T00:22:25.846Z,72.00
2018-02-25T00:24:53.346Z,72.20
2018-02-25T00:27:20.751Z,72.20
2018-02-25T00:29:48.208Z,72.10
2018-02-25T00:32:15.687Z,72.30
2018-02-25T00:34:43.131Z,72.40
2018-02-25T00:37:10.611Z,72.50
2018-02-25T00:39:38.112Z,72.60
2018-02-25T00:42:05.553Z,72.40
2018-02-25T00:44:33.780Z,72.60
2018-02-25T00:47:01.235Z,72.60
2018-02-25T00:49:29.460Z,73.60
2018-02-25T00:51:56.949Z,72.80
2018-02-25T00:54:24.431Z,72.90
2018-02-25T00:56:51.887Z,73.00
2018-02-25T00:59:19.349Z,73.00
2018-02-25T01:01:46.814Z,73.00
2018-02-25T01:04:14.268Z,73.10
2018-02-25T01:06:41.727Z,73.20
2018-02-25T01:09:09.175Z,73.20
2018-02-25T01:11:36.646Z,73.20
2018-02-25T01:14:04.129Z,73.10
2018-02-25T01:16:31.581Z,73.20
2018-02-25T01:18:59.039Z,73.20
2018-02-25T01:21:26.525Z,73.50
2018-02-25T01:23:53.987Z,73.40
2018-02-25T01:26:21.420Z,73.60
2018-02-25T01:28:49.655Z,73.80
2018-02-25T01:31:17.892Z,73.70
2018-02-25T01:33:45.347Z,73.50
2018-02-25T01:36:12.815Z,73.50
2018-02-25T01:38:40.312Z,73.70
2018-02-25T01:41:07.752Z,73.60
2018-02-25T01:43:35.211Z,73.60
2018-02-25T01:46:03.452Z,73.60
2018-02-25T01:48:30.910Z,73.40
2018-02-25T01:51:04.276Z,73.60
2018-02-25T01:53:32.498Z,73.90
2018-02-25T01:55:59.968Z,73.80
2018-02-25T01:58:27.428Z,73.90
2018-02-25T02:00:54.887Z,74.00
2018-02-25T02:03:22.348Z,74.30
2018-02-25T02:05:49.795Z,74.20
2018-02-25T02:08:17.259Z,74.40
2018-02-25T02:10:44.720Z,74.40
2018-02-25T02:13:12.963Z,74.70
2018-02-25T02:15:40.402Z,74.70
2018-02-25T02:18:07.876Z,74.70
2018-02-25T02:20:35.332Z,74.70
2018-02-25T02:23:02.798Z,74.80
2018-02-25T02:25:30.246Z,75.00
2018-02-25T02:27:57.752Z,74.90
2018-02-25T02:30:25.224Z,75.10
2018-02-25T02:32:53.441Z,75.50
2018-02-25T02:35:20.921Z,75.40
2018-02-25T02:37:48.378Z,75.40
2018-02-25T02:40:15.834Z,75.40
2018-02-25T02:42:44.186Z,75.40
2018-02-25T02:45:11.647Z,75.30
2018-02-25T02:47:39.162Z,75.40
2018-02-25T02:50:06.568Z,75.40
2018-02-25T02:52:34.029Z,75.40
2018-02-25T02:55:01.514Z,75.40
2018-02-25T02:57:29.060Z,75.50
2018-02-25T02:59:56.542Z,75.70
2018-02-25T03:02:24.000Z,75.80
2018-02-25T03:04:51.443Z,75.90
2018-02-25T03:07:18.923Z,75.80
2018-02-25T03:09:47.143Z,76.60
2018-02-25T03:12:14.636Z,76.00
2018-02-25T03:14:42.125Z,76.00
2018-02-25T03:17:09.569Z,76.20
2018-02-25T03:19:37.015Z,76.30
2018-02-25T03:22:04.491Z,76.10
2018-02-25T03:24:31.935Z,76.10
2018-02-25T03:26:59.403Z,76.10
2018-02-25T03:29:26.952Z,76.10
2018-02-25T03:31:54.390Z,76.50
2018-02-25T03:34:21.863Z,76.50
2018-02-25T03:36:49.327Z,76.70
2018-02-25T03:39:16.792Z,76.60
2018-02-25T03:41:44.296Z,76.70
2018-02-25T03:44:11.779Z,76.80
2018-02-25T03:46:39.262Z,76.90
2018-02-25T03:49:06.735Z,76.90
2018-02-25T03:51:34.224Z,76.90
2018-02-25T03:54:01.683Z,77.00
2018-02-25T03:56:29.190Z,77.10
2018-02-25T03:58:56.647Z,77.20
2018-02-25T04:01:24.163Z,77.30
2018-02-25T04:03:51.643Z,77.30
2018-02-25T04:06:19.098Z,77.40
2018-02-25T04:08:46.578Z,77.30
2018-02-25T04:11:14.091Z,77.20
2018-02-25T04:13:41.578Z,77.10
2018-02-25T04:16:09.075Z,77.20
2018-02-25T04:18:37.306Z,77.30
2018-02-25T04:21:05.531Z,77.20
2018-02-25T04:23:33.020Z,77.20
2018-02-25T04:26:00.576Z,77.30
2018-02-25T04:28:28.048Z,77.60
2018-02-25T04:30:56.310Z,77.80
2018-02-25T04:33:23.771Z,77.70
2018-02-25T04:35:51.249Z,78.10
2018-02-25T04:38:19.511Z,78.10
2018-02-25T04:40:46.978Z,78.10
2018-02-25T04:43:14.462Z,78.10
2018-02-25T04:45:41.918Z,78.00
2018-02-25T04:48:09.399Z,78.10
2018-02-25T04:50:36.868Z,78.00
2018-02-25T04:53:04.324Z,77.80
2018-02-25T04:55:31.814Z,77.80
2018-02-25T04:58:00.043Z,77.90
2018-02-25T05:00:27.551Z,77.90
2018-02-25T05:02:55.047Z,77.80
2018-02-25T05:05:23.287Z,78.10
2018-02-25T05:07:50.782Z,78.80
2018-02-25T05:10:19.007Z,78.30
2018-02-25T05:12:46.502Z,78.30
2018-02-25T05:15:14.734Z,78.40
2018-02-25T05:17:42.222Z,78.30
2018-02-25T05:20:09.706Z,78.40
2018-02-25T05:22:37.930Z,78.30
2018-02-25T05:25:05.412Z,78.20
2018-02-25T05:27:32.890Z,78.20
2018-02-25T05:30:01.166Z,78.50
2018-02-25T05:32:28.622Z,78.50
2018-02-25T05:34:56.139Z,78.60
2018-02-25T05:37:23.672Z,78.70
2018-02-25T05:39:51.137Z,78.90
2018-02-25T05:42:18.756Z,79.00
2018-02-25T05:44:46.234Z,79.10
2018-02-25T05:47:13.732Z,79.10
2018-02-25T05:49:41.210Z,79.30
2018-02-25T05:52:08.710Z,79.20
2018-02-25T05:54:36.179Z,79.20
2018-02-25T05:57:03.642Z,79.30
2018-02-25T05:59:31.142Z,79.30
2018-02-25T06:01:58.602Z,79.60
2018-02-25T06:04:26.083Z,79.50
2018-02-25T06:06:53.567Z,79.50
2018-02-25T06:09:21.027Z,79.50
2018-02-25T06:11:48.523Z,79.40
2018-02-25T06:14:15.991Z,79.50
2018-02-25T06:16:44.220Z,79.60
2018-02-25T06:19:11.715Z,79.60
2018-02-25T06:21:39.214Z,79.50
2018-02-25T06:24:06.687Z,79.70
2018-02-25T06:26:34.142Z,79.60
2018-02-25T06:29:01.646Z,79.60
2018-02-25T06:31:29.134Z,79.60
2018-02-25T06:33:56.618Z,79.70
2018-02-25T06:36:24.118Z,79.80
2018-02-25T06:38:51.627Z,79.70
2018-02-25T06:41:19.152Z,79.90
2018-02-25T06:43:47.394Z,80.00
2018-02-25T06:46:14.862Z,79.90
2018-02-25T06:48:42.350Z,79.90
2018-02-25T06:51:09.814Z,79.90
2018-02-25T06:53:37.290Z,80.10
2018-02-25T06:56:04.759Z,80.10
2018-02-25T06:58:32.250Z,80.10
2018-02-25T07:00:59.711Z,80.90
2018-02-25T07:03:27.200Z,80.20
2018-02-25T07:05:54.795Z,80.10
2018-02-25T07:08:22.258Z,80.10
2018-02-25T07:10:49.751Z,80.30
2018-02-25T07:13:17.222Z,80.30
2018-02-25T07:15:45.473Z,80.20
2018-02-25T07:18:12.954Z,80.20
2018-02-25T07:20:41.183Z,80.10
2018-02-25T07:23:08.685Z,80.10
2018-02-25T07:25:36.926Z,80.10
2018-02-25T07:28:04.390Z,80.00
2018-02-25T07:30:31.894Z,80.10
2018-02-25T07:32:59.355Z,80.00
2018-02-25T07:35:26.916Z,80.10
2018-02-25T07:37:54.404Z,79.90
2018-02-25T07:40:21.894Z,79.80
2018-02-25T07:42:49.358Z,79.90
2018-02-25T07:45:17.584Z,80.10
2018-02-25T07:47:45.240Z,80.00
2018-02-25T07:50:12.730Z,79.50
2018-02-25T07:52:40.188Z,80.00
2018-02-25T07:55:07.665Z,79.80
2018-02-25T07:57:35.163Z,79.60
2018-02-25T08:00:02.618Z,79.60
2018-02-25T08:02:30.076Z,79.40
2018-02-25T08:04:57.543Z,79.10
2018-02-25T08:07:25.003Z,78.70
2018-02-25T08:09:52.575Z,78.70
2018-02-25T08:12:20.036Z,78.60
2018-02-25T08:14:47.494Z,78.60
2018-02-25T08:17:14.975Z,78.40
2018-02-25T08:19:42.447Z,77.90
2018-02-25T08:22:09.915Z,77.90
2018-02-25T08:24:37.392Z,77.90
2018-02-25T08:27:04.871Z,77.90
2018-02-25T08:29:32.332Z,78.00
2018-02-25T08:31:59.819Z,78.00
2018-02-25T08:34:27.287Z,78.00
2018-02-25T08:36:55.542Z,78.10
2018-02-25T08:39:23.001Z,78.10
2018-02-25T08:41:50.456Z,78.10
2018-02-25T08:44:17.939Z,78.10
2018-02-25T08:46:45.406Z,78.10
2018-02-25T08:49:12.890Z,78.20
2018-02-25T08:51:40.366Z,78.30
2018-02-25T08:54:07.890Z,78.30
2018-02-25T08:56:35.345Z,78.70
2018-02-25T08:59:02.828Z,78.70
2018-02-25T09:01:30.288Z,79.00
2018-02-25T09:03:57.749Z,79.20
2018-02-25T09:06:25.234Z,79.30
2018-02-25T09:08:52.685Z,79.60
2018-02-25T09:11:20.183Z,79.50
2018-02-25T09:13:47.641Z,79.60
2018-02-25T09:16:15.131Z,79.60
2018-02-25T09:18:42.599Z,79.50
2018-02-25T09:21:10.059Z,79.70
2018-02-25T09:23:37.593Z,79.70
2018-02-25T09:26:05.075Z,79.70
2018-02-25T09:28:32.591Z,79.70
2018-02-25T09:31:00.079Z,79.70
2018-02-25T09:33:27.540Z,79.60
2018-02-25T09:35:55.084Z,79.10
2018-02-25T09:38:22.507Z,79.40
2018-02-25T09:40:50.761Z,79.20
2018-02-25T09:43:18.227Z,79.20
2018-02-25T09:45:46.456Z,79.40
2018-02-25T09:48:13.986Z,79.40
2018-02-25T09:50:41.470Z,79.50
2018-02-25T09:53:08.936Z,79.40
2018-02-25T09:55:36.428Z,79.20
2018-02-25T09:58:03.934Z,79.20
2018-02-25T10:00:31.425Z,79.20
2018-02-25T10:02:58.883Z,79.10
2018-02-25T10:05:26.383Z,78.90
2018-02-25T10:07:53.918Z,78.90
2018-02-25T10:10:21.355Z,78.30
2018-02-25T10:12:48.847Z,78.40
2018-02-25T10:15:17.093Z,78.60
2018-02-25T10:17:44.551Z,78.50
2018-02-25T10:20:12.090Z,78.30
2018-02-25T10:22:39.574Z,78.40
2018-02-25T10:25:07.073Z,78.40
2018-02-25T10:27:34.561Z,78.50
2018-02-25T10:30:02.039Z,78.30
2018-02-25T10:32:29.506Z,78.30
2018-02-25T10:34:57.746Z,78.30
2018-02-25T10:37:25.226Z,78.30
2018-02-25T10:39:52.682Z,78.50
2018-02-25T10:42:20.178Z,78.70
2018-02-25T10:44:48.398Z,78.30
2018-02-25T10:47:15.875Z,78.30
2018-02-25T10:49:43.383Z,78.60
2018-02-25T10:52:10.883Z,78.60
2018-02-25T10:54:38.355Z,78.60
2018-02-25T10:57:05.821Z,78.30
2018-02-25T10:59:33.323Z,78.30
2018-02-25T11:02:00.805Z,78.50
2018-02-25T11:04:28.275Z,78.30
2018-02-25T11:06:55.750Z,78.40
2018-02-25T11:09:24.128Z,77.60
2018-02-25T11:11:51.605Z,77.60
2018-02-25T11:14:19.119Z,77.70
2018-02-25T11:16:46.671Z,78.00
2018-02-25T11:19:14.139Z,77.80
2018-02-25T11:21:41.634Z,78.40
2018-02-25T11:24:09.862Z,78.30
2018-02-25T11:26:37.346Z,78.30
2018-02-25T11:29:04.883Z,78.00
2018-02-25T11:31:32.444Z,78.30
2018-02-25T11:34:00.627Z,78.40
2018-02-25T11:36:28.102Z,78.30
2018-02-25T11:38:55.609Z,78.10
2018-02-25T11:41:23.091Z,78.20
2018-02-25T11:43:50.555Z,78.50
2018-02-25T11:46:18.100Z,78.40
2018-02-25T11:48:45.583Z,78.30
2018-02-25T11:51:13.114Z,77.80
2018-02-25T11:53:40.608Z,77.40
2018-02-25T11:56:08.108Z,77.50
2018-02-25T11:58:35.598Z,77.60
2018-02-25T12:01:03.083Z,77.40
2018-02-25T12:03:30.589Z,77.60
2018-02-25T12:05:58.047Z,78.00
2018-02-25T12:08:25.531Z,78.20
2018-02-25T12:10:53.008Z,78.30
2018-02-25T12:13:20.517Z,78.20
2018-02-25T12:15:48.079Z,78.20
2018-02-25T12:18:15.613Z,78.30
2018-02-25T12:20:43.858Z,78.30
2018-02-25T12:23:11.592Z,78.30
2018-02-25T12:25:39.075Z,78.40
2018-02-25T12:28:06.589Z,78.40
2018-02-25T12:30:34.059Z,78.20
2018-02-25T12:33:01.523Z,78.20
2018-02-25T12:35:29.808Z,77.90
2018-02-25T12:37:57.296Z,77.90
2018-02-25T12:40:25.542Z,78.30
2018-02-25T12:42:53.020Z,79.00
2018-02-25T12:45:20.475Z,78.10
2018-02-25T12:47:47.943Z,78.10
2018-02-25T12:50:15.433Z,77.60
2018-02-25T12:52:43.327Z,77.30
2018-02-25T12:55:10.815Z,77.50
2018-02-25T12:57:39.056Z,77.30
2018-02-25T13:00:06.549Z,77.20
2018-02-25T13:02:34.784Z,76.70
2018-02-25T13:05:02.330Z,76.80
2018-02-25T13:07:29.840Z,76.20
2018-02-25T13:09:58.087Z,76.50
2018-02-25T13:12:25.562Z,76.70
2018-02-25T13:14:53.043Z,76.50
2018-02-25T13:17:21.279Z,76.80
2018-02-25T13:19:48.779Z,76.80
2018-02-25T13:22:16.257Z,76.90
2018-02-25T13:24:43.766Z,77.30
2018-02-25T13:27:11.335Z,77.70
2018-02-25T13:29:38.834Z,77.70
2018-02-25T13:32:06.307Z,77.80
2018-02-25T13:34:33.787Z,77.80
2018-02-25T13:37:01.262Z,78.20
2018-02-25T13:39:28.718Z,78.00
2018-02-25T13:41:56.774Z,78.00
2018-02-25T13:44:24.999Z,77.40
2018-02-25T13:46:52.490Z,77.30
2018-02-25T13:49:19.957Z,77.20
2018-02-25T13:51:47.444Z,76.60
2018-02-25T13:54:15.717Z,76.50
2018-02-25T13:56:43.966Z,76.60
2018-02-25T13:59:11.551Z,76.60
2018-02-25T14:01:39.466Z,76.20
2018-02-25T14:04:06.931Z,76.30
2018-02-25T14:06:34.422Z,76.60
2018-02-25T14:09:01.903Z,76.80
2018-02-25T14:11:29.410Z,77.20
2018-02-25T14:13:56.903Z,77.40
2018-02-25T14:16:24.648Z,77.80
2018-02-25T14:18:52.154Z,77.30
2018-02-25T14:21:20.377Z,77.20
2018-02-25T14:23:47.922Z,77.10
2018-02-25T14:26:15.383Z,77.00
2018-02-25T14:28:43.623Z,77.20
2018-02-25T14:31:11.111Z,77.10
2018-02-25T14:33:38.574Z,77.20
2018-02-25T14:36:06.088Z,77.40
2018-02-25T14:38:33.592Z,77.40
2018-02-25T14:41:01.090Z,77.30
2018-02-25T14:43:29.351Z,77.50
2018-02-25T14:45:57.453Z,77.50
2018-02-25T14:48:24.975Z,77.40
2018-02-25T14:50:52.454Z,77.10
2018-02-25T14:53:19.955Z,77.00
2018-02-25T14:55:47.438Z,76.90
2018-02-25T14:58:14.939Z,76.40
2018-02-25T15:00:43.175Z,76.80
2018-02-25T15:03:10.674Z,76.70
2018-02-25T15:05:39.333Z,76.50
2018-02-25T15:08:24.663Z,76.20
2018-02-25T15:11:04.722Z,76.10
2018-02-25T15:13:42.102Z,76.70
2018-02-25T15:16:09.600Z,76.90
2018-02-25T15:18:37.887Z,77.20
2018-02-25T15:21:05.374Z,77.20
2018-02-25T15:23:33.001Z,77.10
2018-02-25T15:26:00.487Z,77.10
2018-02-25T15:28:28.752Z,76.00
2018-02-25T15:30:57.014Z,77.00
2018-02-25T15:33:24.503Z,76.30
2018-02-25T15:35:52.019Z,76.40
2018-02-25T15:38:19.539Z,76.40
2018-02-25T15:40:47.803Z,76.10
2018-02-25T15:43:15.271Z,75.90
2018-02-25T15:45:42.817Z,75.90
2018-02-25T15:48:11.102Z,77.00
2018-02-25T15:50:38.604Z,76.80
2018-02-25T15:53:06.831Z,76.80
2018-02-25T15:55:34.369Z,76.80
2018-02-25T15:58:01.895Z,76.50
2018-02-25T16:00:29.387Z,76.60
2018-02-25T16:02:57.638Z,77.00
2018-02-25T16:05:25.139Z,77.00
2018-02-25T16:07:52.595Z,77.30
2018-02-25T16:10:20.107Z,77.80
2018-02-25T16:12:47.647Z,78.00
2018-02-25T16:15:15.875Z,78.70
2018-02-25T16:17:43.386Z,78.70
2018-02-25T16:20:10.864Z,78.60
2018-02-25T16:22:38.408Z,78.60
2018-02-25T16:25:05.881Z,78.90
2018-02-25T16:27:33.363Z,79.10
2018-02-25T16:30:00.838Z,79.00
2018-02-25T16:32:28.342Z,78.90
2018-02-25T16:34:55.810Z,79.00
2018-02-25T16:37:23.307Z,79.30
2018-02-25T16:39:50.932Z,79.60
2018-02-25T16:42:18.413Z,79.80
2018-02-25T16:44:45.888Z,80.20
2018-02-25T16:47:13.438Z,80.30
2018-02-25T16:49:40.899Z,80.30
2018-02-25T16:52:08.424Z,80.40
2018-02-25T16:54:35.964Z,80.70
2018-02-25T16:57:03.435Z,80.80
2018-02-25T16:59:30.894Z,80.70
2018-02-25T17:01:58.359Z,80.90
2018-02-25T17:04:25.844Z,80.90
2018-02-25T17:06:53.303Z,81.00
2018-02-25T17:09:20.812Z,81.10
2018-02-25T17:11:48.290Z,81.20
2018-02-25T17:14:15.767Z,81.20
2018-02-25T17:16:43.265Z,81.30
2018-02-25T17:19:10.788Z,81.40
2018-02-25T17:21:38.279Z,81.50
2018-02-25T17:24:05.756Z,81.60
2018-02-25T17:26:33.258Z,81.40
2018-02-25T17:29:00.716Z,81.60
2018-02-25T17:31:28.175Z,81.80
2018-02-25T17:33:56.427Z,81.90
2018-02-25T17:36:23.910Z,81.80
2018-02-25T17:38:51.543Z,81.90
2018-02-25T17:41:19.216Z,82.00
2018-02-25T17:43:47.585Z,82.10
2018-02-25T17:46:15.058Z,82.10
2018-02-25T17:48:43.295Z,82.30
2018-02-25T17:51:10.788Z,82.10
2018-02-25T17:53:39.147Z,82.40
2018-02-25T17:56:06.638Z,82.40
2018-02-25T17:58:34.124Z,82.40
2018-02-25T18:01:01.594Z,82.40
2018-02-25T18:03:29.082Z,82.40
2018-02-25T18:05:57.346Z,82.90
2018-02-25T18:08:24.843Z,82.60
2018-02-25T18:10:52.318Z,82.60
2018-02-25T18:13:19.822Z,82.90
2018-02-25T18:15:47.290Z,83.00
2018-02-25T18:18:14.785Z,82.90
2018-02-25T18:20:42.245Z,82.90
2018-02-25T18:23:09.802Z,83.00
2018-02-25T18:25:37.276Z,83.00
2018-02-25T18:28:04.827Z,83.10
2018-02-25T18:30:32.313Z,83.20
2018-02-25T18:32:59.887Z,83.40
2018-02-25T18:35:27.361Z,83.30
2018-02-25T18:37:55.603Z,83.20
2018-02-25T18:40:23.151Z,83.20
2018-02-25T18:42:50.631Z,83.70
2018-02-25T18:45:18.123Z,83.60
2018-02-25T18:47:46.391Z,83.70
2018-02-25T18:50:13.877Z,83.70
2018-02-25T18:52:41.397Z,83.60
2018-02-25T18:55:08.863Z,83.50
2018-02-25T18:57:36.374Z,83.30
2018-02-25T19:00:03.832Z,83.30
2018-02-25T19:02:31.319Z,83.30
2018-02-25T19:04:58.821Z,83.50
2018-02-25T19:07:26.306Z,83.50
2018-02-25T19:09:53.817Z,83.50
2018-02-25T19:12:21.309Z,83.80
2018-02-25T19:14:48.805Z,83.80
2018-02-25T19:17:16.291Z,83.80
2018-02-25T19:19:44.529Z,83.80
2018-02-25T19:22:12.036Z,83.80
2018-02-25T19:24:39.551Z,84.00
2018-02-25T19:27:07.011Z,84.00
2018-02-25T19:29:34.514Z,84.10
2018-02-25T19:32:02.015Z,84.10
2018-02-25T19:34:29.454Z,84.20
2018-02-25T19:37:02.524Z,84.10
2018-02-25T19:39:35.535Z,84.00
2018-02-25T19:42:03.071Z,83.80
2018-02-25T19:44:30.551Z,83.80
2018-02-25T19:46:58.031Z,84.10
2018-02-25T19:49:25.501Z,83.20
2018-02-25T19:51:53.762Z,83.40
2018-02-25T19:54:21.282Z,83.40
2018-02-25T19:56:48.806Z,83.00
2018-02-25T19:59:16.281Z,83.40
2018-02-25T20:01:43.775Z,82.90
2018-02-25T20:04:11.299Z,82.90
2018-02-25T20:06:38.764Z,82.90
2018-02-25T20:09:06.264Z,83.00
2018-02-25T20:11:33.730Z,83.20
2018-02-25T20:14:01.239Z,83.40
2018-02-25T20:16:28.727Z,83.70
2018-02-25T20:18:56.982Z,84.00
2018-02-25T20:21:24.477Z,84.00
2018-02-25T20:23:52.767Z,84.10
2018-02-25T20:26:20.990Z,84.20
2018-02-25T20:28:48.451Z,84.10
2018-02-25T20:31:15.947Z,84.10
2018-02-25T20:33:43.422Z,83.60
2018-02-25T20:36:10.911Z,83.50
2018-02-25T20:38:38.400Z,83.30
2018-02-25T20:41:05.903Z,83.40
2018-02-25T20:43:33.391Z,83.50
2018-02-25T20:46:00.842Z,83.60
2018-02-25T20:48:28.316Z,83.60
2018-02-25T20:50:56.564Z,83.80
2018-02-25T20:53:24.043Z,83.70
2018-02-25T20:55:51.503Z,84.00
2018-02-25T20:58:20.585Z,84.20
2018-02-25T21:00:48.046Z,84.10
2018-02-25T21:03:15.539Z,84.30
2018-02-25T21:05:43.011Z,84.10
2018-02-25T21:08:11.248Z,84.20
2018-02-25T21:10:39.515Z,84.30
2018-02-25T21:13:07.001Z,84.20
2018-02-25T21:15:34.458Z,84.40
2018-02-25T21:18:01.943Z,84.50
2018-02-25T21:20:30.179Z,84.10
2018-02-25T21:22:57.663Z,84.10
2018-02-25T21:27:59.799Z,83.90
2018-02-25T21:30:27.263Z,83.90
2018-02-25T21:32:54.742Z,84.00
2018-02-25T21:35:22.204Z,84.00
2018-02-25T21:37:49.699Z,84.40
2018-02-25T21:40:17.191Z,84.30
2018-02-25T21:42:44.652Z,84.50
2018-02-25T21:45:12.164Z,85.90
2018-02-25T21:47:40.395Z,85.70
2018-02-25T21:50:08.619Z,85.70
2018-02-25T21:52:36.119Z,85.60
2018-02-25T21:55:03.575Z,85.50
2018-02-25T22:00:51.298Z,85.40
2018-02-25T22:03:24.359Z,85.40
2018-02-25T22:05:52.583Z,85.50
2018-02-25T22:08:20.093Z,85.50
2018-02-25T22:10:47.554Z,85.10
2018-02-25T22:13:15.774Z,84.60
2018-02-25T22:15:43.297Z,84.50
2018-02-25T22:18:10.731Z,84.40
2018-02-25T22:20:38.235Z,84.50
2018-02-25T22:23:05.708Z,84.70
2018-02-25T22:25:33.182Z,84.70
2018-02-25T22:28:00.722Z,84.80
2018-02-25T22:30:28.215Z,84.80
2018-02-25T22:32:55.691Z,85.10
2018-02-25T22:35:23.927Z,84.90
2018-02-25T22:37:51.423Z,84.90
2018-02-25T22:40:18.894Z,84.80
2018-02-25T22:42:46.386Z,85.00
2018-02-25T22:45:13.874Z,84.90
2018-02-25T22:47:41.338Z,84.90
2018-02-25T22:50:08.827Z,84.90
2018-02-25T22:52:36.336Z,85.40
2018-02-25T22:55:03.791Z,85.90
2018-02-25T22:57:31.292Z,85.60
2018-02-25T22:59:58.778Z,85.30
2018-02-25T23:02:26.243Z,84.90
2018-02-25T23:04:53.731Z,84.90
2018-02-25T23:07:21.238Z,84.90
2018-02-25T23:09:49.451Z,84.80
2018-02-25T23:12:16.984Z,84.80
2018-02-25T23:14:44.423Z,84.80
2018-02-25T23:17:11.918Z,84.70
2018-02-25T23:19:39.374Z,84.90
2018-02-25T23:22:06.890Z,85.00
2018-02-25T23:24:34.386Z,85.20
2018-02-25T23:27:01.858Z,85.30
2018-02-25T23:29:29.392Z,85.50
2018-02-25T23:31:56.888Z,85.50
2018-02-25T23:34:25.155Z,85.40
2018-02-25T23:36:52.617Z,85.40
2018-02-25T23:39:20.089Z,85.10
2018-02-25T23:41:47.575Z,84.80
2018-02-25T23:44:15.031Z,84.90
2018-02-25T23:46:42.531Z,84.60
2018-02-25T23:49:10.034Z,84.50
2018-02-25T23:51:38.263Z,84.40
2018-02-25T23:54:05.718Z,84.40
2018-02-25T23:56:33.989Z,84.60
2018-02-25T23:59:01.449Z,84.60
